createdAt,value
2018-05-31T00:01:32.893Z,6.57
2018-05-31T00:06:28.302Z,7.00
2018-05-31T00:11:23.270Z,7.43
2018-05-31T00:16:17.853Z,7.00
2018-05-31T00:21:12.989Z,6.03
2018-05-31T00:26:08.551Z,7.20
2018-05-31T00:31:03.435Z,6.33
2018-05-31T00:35:58.824Z,7.10
2018-05-31T00:40:54.224Z,6.63
2018-05-31T00:45:49.064Z,7.07
2018-05-31T00:50:44.772Z,6.90
2018-05-31T01:11:42.360Z,6.80
2018-05-31T01:16:36.942Z,8.13
2018-05-31T01:21:31.366Z,7.77
2018-05-31T01:26:25.921Z,8.23
2018-05-31T01:31:20.463Z,7.13
2018-05-31T01:36:15.034Z,7.90
2018-05-31T01:41:09.599Z,8.07
2018-05-31T01:46:04.902Z,7.80
2018-05-31T01:50:59.450Z,8.63
2018-05-31T01:55:53.984Z,8.77
2018-05-31T02:00:48.551Z,8.47
2018-05-31T02:05:43.222Z,8.30
2018-05-31T02:10:38.552Z,7.33
2018-05-31T02:15:33.847Z,7.70
2018-05-31T02:20:28.543Z,8.40
2018-05-31T02:25:23.081Z,7.53
2018-05-31T02:30:17.754Z,8.37
2018-05-31T02:35:12.484Z,7.43
2018-05-31T02:40:07.629Z,7.50
2018-05-31T02:45:01.991Z,6.47
2018-05-31T02:49:56.723Z,6.17
2018-05-31T02:54:51.168Z,5.33
2018-05-31T02:59:46.649Z,5.60
2018-05-31T03:04:41.246Z,4.80
2018-05-31T03:09:35.825Z,5.20
2018-05-31T03:14:30.250Z,4.70
2018-05-31T03:19:24.952Z,4.90
2018-05-31T03:24:19.335Z,4.70
2018-05-31T03:29:13.904Z,5.03
2018-05-31T03:34:08.292Z,4.33
2018-05-31T03:39:02.867Z,4.33
2018-05-31T03:43:57.403Z,4.57
2018-05-31T03:48:51.973Z,4.20
2018-05-31T03:53:46.485Z,4.50
2018-05-31T03:58:41.084Z,4.63
2018-05-31T04:03:35.644Z,4.17
2018-05-31T04:08:30.342Z,4.37
2018-05-31T04:13:24.892Z,3.80
2018-05-31T04:18:19.463Z,3.67
2018-05-31T04:23:14.229Z,3.33
2018-05-31T04:28:08.997Z,3.77
2018-05-31T04:33:03.365Z,3.33
2018-05-31T04:37:57.936Z,3.40
2018-05-31T04:42:52.676Z,3.20
2018-05-31T04:47:47.473Z,3.20
2018-05-31T04:52:42.251Z,2.87
2018-05-31T04:57:38.490Z,3.40
2018-05-31T05:02:33.636Z,3.43
2018-05-31T05:07:28.954Z,4.03
2018-05-31T05:12:23.528Z,3.43
2018-05-31T05:17:18.061Z,3.70
2018-05-31T05:22:13.393Z,3.40
2018-05-31T05:27:08.797Z,3.40
2018-05-31T05:32:03.369Z,4.77
2018-05-31T05:36:57.750Z,3.77
2018-05-31T05:41:53.037Z,3.27
2018-05-31T05:46:47.411Z,3.60
2018-05-31T05:51:43.317Z,3.00
2018-05-31T05:56:38.905Z,3.33
2018-05-31T06:01:33.764Z,3.10
2018-05-31T06:06:28.178Z,3.27
2018-05-31T06:11:23.794Z,2.90
2018-05-31T06:16:19.440Z,2.83
2018-05-31T06:21:15.064Z,2.70
2018-05-31T06:26:09.455Z,3.10
2018-05-31T06:31:03.762Z,3.43
2018-05-31T06:35:58.339Z,3.20
2018-05-31T06:40:53.463Z,3.40
2018-05-31T06:45:48.846Z,3.77
2018-05-31T06:50:43.464Z,3.50
2018-05-31T06:55:37.902Z,3.30
2018-05-31T07:00:32.269Z,3.87
2018-05-31T07:05:26.632Z,3.60
2018-05-31T07:10:22.380Z,3.87
2018-05-31T07:15:16.873Z,3.70
2018-05-31T07:20:11.212Z,3.50
2018-05-31T07:25:05.346Z,3.10
2018-05-31T07:29:59.697Z,3.20
2018-05-31T07:34:54.211Z,3.73
2018-05-31T07:39:48.323Z,3.20
2018-05-31T07:44:43.880Z,3.57
2018-05-31T07:49:39.012Z,3.33
2018-05-31T07:54:33.377Z,3.70
2018-05-31T07:59:29.248Z,3.43
2018-05-31T08:04:23.621Z,3.90
2018-05-31T08:09:18.727Z,4.47
2018-05-31T08:14:13.214Z,3.50
2018-05-31T08:19:07.564Z,3.77
2018-05-31T08:24:02.703Z,4.13
2018-05-31T08:28:57.110Z,4.87
2018-05-31T08:33:51.465Z,4.77
2018-05-31T08:38:45.897Z,4.33
2018-05-31T08:43:40.458Z,4.70
2018-05-31T08:48:34.829Z,4.33
2018-05-31T08:53:29.175Z,4.20
2018-05-31T08:58:23.648Z,3.40
2018-05-31T09:03:18.075Z,2.90
2018-05-31T09:08:12.552Z,3.37
2018-05-31T09:13:07.065Z,2.70
2018-05-31T09:18:01.595Z,2.53
2018-05-31T09:22:55.968Z,2.63
2018-05-31T09:27:50.692Z,2.70
2018-05-31T09:32:45.041Z,2.50
2018-05-31T09:37:40.151Z,2.63
2018-05-31T09:42:35.106Z,2.33
2018-05-31T09:47:29.470Z,1.80
2018-05-31T09:52:24.120Z,3.13
2018-05-31T09:57:19.558Z,2.90
2018-05-31T10:02:14.978Z,3.27
2018-05-31T10:07:10.376Z,3.70
2018-05-31T10:12:05.031Z,3.23
2018-05-31T10:16:59.650Z,3.17
2018-05-31T10:21:54.271Z,3.30
2018-05-31T10:26:48.949Z,3.37
2018-05-31T10:31:44.422Z,3.30
2018-05-31T10:36:39.248Z,3.70
2018-05-31T10:41:33.901Z,3.67
2018-05-31T10:46:29.938Z,3.50
2018-05-31T10:51:25.680Z,3.03
2018-05-31T10:56:21.698Z,2.63
2018-05-31T11:01:17.182Z,2.70
2018-05-31T11:06:11.960Z,2.40
2018-05-31T11:11:06.716Z,2.40
2018-05-31T11:16:01.562Z,2.50
2018-05-31T11:20:57.026Z,3.43
2018-05-31T11:25:51.729Z,3.37
2018-05-31T11:30:46.601Z,3.10
2018-05-31T11:35:41.370Z,2.47
2018-05-31T11:40:36.293Z,2.30
2018-05-31T11:45:30.909Z,2.50
2018-05-31T11:50:25.562Z,2.83
2018-05-31T11:55:20.304Z,2.90
2018-05-31T12:00:15.234Z,2.50
2018-05-31T12:05:09.868Z,2.40
2018-05-31T12:10:04.540Z,2.57
2018-05-31T12:14:59.178Z,1.93
2018-05-31T12:19:53.809Z,2.67
2018-05-31T12:24:48.452Z,2.30
2018-05-31T12:29:43.864Z,1.93
2018-05-31T12:34:39.447Z,2.67
2018-05-31T12:39:34.266Z,2.53
2018-05-31T12:44:29.946Z,2.33
2018-05-31T12:49:24.769Z,2.60
2018-05-31T12:54:20.353Z,2.47
2018-05-31T12:59:15.473Z,2.50
2018-05-31T13:04:11.076Z,2.40
2018-05-31T13:09:05.657Z,2.33
2018-05-31T13:14:01.063Z,2.57
2018-05-31T13:18:58.521Z,2.67
2018-05-31T13:23:54.259Z,2.30
2018-05-31T13:28:49.103Z,3.40
2018-05-31T13:33:44.187Z,2.90
2018-05-31T13:38:38.914Z,3.10
2018-05-31T13:43:33.749Z,2.80
2018-05-31T13:48:29.203Z,2.93
2018-05-31T13:53:24.233Z,2.90
2018-05-31T13:58:25.064Z,2.90
2018-05-31T14:03:21.642Z,3.07
2018-05-31T14:08:16.467Z,3.07
2018-05-31T14:13:11.358Z,3.20
2018-05-31T14:18:05.652Z,3.00
2018-05-31T14:23:01.034Z,3.20
2018-05-31T14:27:55.729Z,2.90
2018-05-31T14:32:50.393Z,2.70
2018-05-31T14:37:45.206Z,3.43
2018-05-31T14:42:39.855Z,2.83
2018-05-31T14:47:34.558Z,2.83
2018-05-31T14:52:29.210Z,2.73
2018-05-31T14:57:23.830Z,2.20
2018-05-31T15:02:19.228Z,2.43
2018-05-31T15:07:14.025Z,2.87
2018-05-31T15:12:08.723Z,2.70
2018-05-31T15:17:03.389Z,3.00
2018-05-31T15:21:58.780Z,3.07
2018-05-31T15:26:53.410Z,2.73
2018-05-31T15:31:48.739Z,2.50
2018-05-31T15:36:44.165Z,2.50
2018-05-31T15:41:39.606Z,3.17
2018-05-31T15:46:35.010Z,2.60
2018-05-31T15:51:29.814Z,2.83
2018-05-31T15:56:24.452Z,3.73
2018-05-31T16:01:19.852Z,3.13
2018-05-31T16:06:14.593Z,3.00
2018-05-31T16:11:09.363Z,3.30
2018-05-31T16:16:04.001Z,3.00
2018-05-31T16:20:58.645Z,2.83
2018-05-31T16:25:53.533Z,2.70
2018-05-31T16:30:48.420Z,3.20
2018-05-31T16:35:43.087Z,2.80
2018-05-31T16:40:37.773Z,2.73
2018-05-31T16:45:32.548Z,3.13
2018-05-31T16:50:27.292Z,2.70
2018-05-31T16:55:22.720Z,2.57
2018-05-31T17:00:18.396Z,3.00
2018-05-31T17:05:13.109Z,2.73
2018-05-31T17:10:07.711Z,2.40
2018-05-31T17:15:02.378Z,3.20
2018-05-31T17:19:57.832Z,3.00
2018-05-31T17:24:52.535Z,3.03
2018-05-31T17:29:47.379Z,3.10
2018-05-31T17:34:42.350Z,3.23
2018-05-31T17:39:36.736Z,3.57
2018-05-31T17:44:31.260Z,3.50
2018-05-31T17:49:25.839Z,3.40
2018-05-31T17:54:20.274Z,2.80
2018-05-31T17:59:14.689Z,3.37
2018-05-31T18:04:09.179Z,3.03
2018-05-31T18:09:03.141Z,2.77
2018-05-31T18:13:57.580Z,3.03
2018-05-31T18:18:52.724Z,3.07
2018-05-31T18:23:47.188Z,3.70
2018-05-31T18:28:41.695Z,3.40
2018-05-31T18:33:36.143Z,4.40
2018-05-31T18:38:30.602Z,4.80
2018-05-31T18:43:25.030Z,3.77
2018-05-31T18:48:28.571Z,3.40
2018-05-31T18:53:25.296Z,3.97
2018-05-31T18:58:19.840Z,4.17
2018-05-31T19:03:17.265Z,4.23
2018-05-31T19:08:12.579Z,4.27
2018-05-31T19:13:16.061Z,4.80
2018-05-31T19:18:18.490Z,4.60
2018-05-31T19:23:13.097Z,4.70
2018-05-31T19:28:07.501Z,5.67
2018-05-31T19:33:02.955Z,5.43
2018-05-31T19:37:57.539Z,4.63
2018-05-31T19:42:57.106Z,5.13
2018-05-31T19:47:51.492Z,5.10
2018-05-31T19:52:51.415Z,5.73
2018-05-31T19:57:51.517Z,5.97
2018-05-31T20:02:51.594Z,6.57
2018-05-31T20:07:47.103Z,6.87
2018-05-31T20:12:42.539Z,7.50
2018-05-31T20:17:37.980Z,8.03
2018-05-31T20:22:32.551Z,7.97
2018-05-31T20:27:28.113Z,9.47
2018-05-31T20:32:23.999Z,9.70
2018-05-31T20:37:21.559Z,9.33
2018-05-31T20:42:16.254Z,9.07
2018-05-31T20:47:12.847Z,9.73
2018-05-31T20:52:08.431Z,9.30
2018-05-31T20:57:03.038Z,10.10
2018-05-31T21:01:57.488Z,10.53
2018-05-31T21:06:53.075Z,9.60
2018-05-31T21:11:47.612Z,11.03
2018-05-31T21:16:42.392Z,10.80
2018-05-31T21:21:36.794Z,10.40
2018-05-31T21:26:31.401Z,9.23
2018-05-31T21:31:26.589Z,8.93
2018-05-31T21:36:22.014Z,9.00
2018-05-31T21:41:16.968Z,8.80
2018-05-31T21:46:11.412Z,9.77
2018-05-31T21:51:06.080Z,9.87
2018-05-31T21:56:00.645Z,9.50
2018-05-31T22:00:57.216Z,10.27
2018-05-31T22:05:51.999Z,9.37
2018-05-31T22:10:47.307Z,10.63
2018-05-31T22:15:41.966Z,11.47
2018-05-31T22:20:36.411Z,10.70
2018-05-31T22:25:30.971Z,11.00
2018-05-31T22:30:25.521Z,9.97
2018-05-31T22:35:19.918Z,10.37
2018-05-31T22:40:14.581Z,11.20
2018-05-31T22:45:08.981Z,9.53
2018-05-31T22:50:03.419Z,11.83
2018-05-31T22:54:58.139Z,11.50
2018-05-31T22:59:52.818Z,12.27
2018-05-31T23:04:47.949Z,12.23
2018-05-31T23:09:42.321Z,10.80
2018-05-31T23:14:37.592Z,11.23
2018-05-31T23:19:32.251Z,11.73
2018-05-31T23:24:27.481Z,11.90
2018-05-31T23:29:23.160Z,12.00
2018-05-31T23:34:17.707Z,12.70
2018-05-31T23:39:13.485Z,12.60
2018-05-31T23:44:07.964Z,11.40
2018-05-31T23:49:03.220Z,12.83
2018-05-31T23:53:57.739Z,13.60
2018-05-31T23:58:52.140Z,13.00
